Time;durP1;ratioP1;P1;durP2;ratioP2;P2;SDS_P1;SDS_P2;PMS_P1;PMS_P2;Temp;Humidity;BMP_temperature;BMP_pressure;BME280_temperature;BME280_humidity;BME280_pressure;Samples;Min_cycle;Max_cycle;Signal;HPM_P1;HPM_P2
2020/12/15 00:01:12;;;;;;;3.67;2.00;;;8.20;99.90;;;;;;4988953;28;20106;-61
2020/12/15 00:03:37;;;;;;;6.03;2.10;;;8.10;99.90;;;;;;4999573;28;20101;-60
2020/12/15 00:06:03;;;;;;;6.15;2.13;;;8.10;99.90;;;;;;5040131;28;20053;-61
2020/12/15 00:08:29;;;;;;;4.53;2.08;;;8.10;99.90;;;;;;5027412;28;20050;-59
2020/12/15 00:10:54;;;;;;;4.00;1.95;;;8.10;99.90;;;;;;5043440;28;20029;-58
2020/12/15 00:13:20;;;;;;;5.40;2.20;;;8.00;99.90;;;;;;5029162;28;20018;-59
2020/12/15 00:15:45;;;;;;;4.63;1.75;;;8.00;99.90;;;;;;5029293;28;20033;-58
2020/12/15 00:18:11;;;;;;;5.55;2.15;;;8.00;99.90;;;;;;5030544;28;20029;-60
2020/12/15 00:20:41;;;;;;;4.65;2.17;;;7.90;99.90;;;;;;5057524;28;20070;-59
2020/12/15 00:23:07;;;;;;;5.72;2.40;;;7.90;99.90;;;;;;5031751;28;20025;-58
2020/12/15 00:25:33;;;;;;;4.68;2.20;;;7.90;99.90;;;;;;5028222;28;20061;-60
2020/12/15 00:27:58;;;;;;;3.35;2.15;;;7.80;99.90;;;;;;5054730;28;20063;-58
2020/12/15 00:30:25;;;;;;;4.07;2.25;;;7.80;99.90;;;;;;5029655;28;20025;-58
2020/12/15 00:32:51;;;;;;;5.40;2.35;;;7.70;99.90;;;;;;5046267;28;20579;-58
2020/12/15 00:35:17;;;;;;;3.75;2.42;;;7.70;99.90;;;;;;5029928;28;20410;-59
2020/12/15 00:37:43;;;;;;;3.40;2.35;;;7.60;99.90;;;;;;5034626;28;20025;-59
2020/12/15 00:40:09;;;;;;;3.35;2.20;;;7.60;99.90;;;;;;5036698;28;20022;-59
2020/12/15 00:42:35;;;;;;;5.38;2.30;;;7.50;99.90;;;;;;5036707;28;20483;-57
2020/12/15 00:45:00;;;;;;;4.72;2.50;;;7.60;99.90;;;;;;5036166;28;20505;-60
2020/12/15 00:47:26;;;;;;;4.70;2.10;;;7.60;99.90;;;;;;5036906;28;20018;-59
2020/12/15 00:49:52;;;;;;;4.18;2.55;;;7.50;99.90;;;;;;5034765;28;20021;-60
2020/12/15 00:52:18;;;;;;;6.05;3.10;;;7.50;99.90;;;;;;5040920;28;20014;-59
2020/12/15 00:54:44;;;;;;;5.53;2.75;;;7.40;99.90;;;;;;5035340;28;20039;-59
2020/12/15 00:57:10;;;;;;;3.50;2.63;;;7.40;99.90;;;;;;5034433;28;20475;-58
2020/12/15 00:59:36;;;;;;;4.70;2.38;;;7.40;99.90;;;;;;5036933;28;20021;-58
2020/12/15 01:02:03;;;;;;;5.00;2.25;;;7.40;99.90;;;;;;5022497;28;20054;-59
2020/12/15 01:04:29;;;;;;;8.38;3.30;;;7.30;99.90;;;;;;5030140;28;20132;-60
2020/12/15 01:06:55;;;;;;;4.43;2.58;;;7.30;99.90;;;;;;5037395;28;20108;-59
2020/12/15 01:09:21;;;;;;;6.85;3.10;;;7.30;99.90;;;;;;5043415;28;20063;-60
2020/12/15 01:11:46;;;;;;;6.68;3.35;;;7.30;99.90;;;;;;5038248;28;20026;-58
2020/12/15 01:14:12;;;;;;;7.20;2.83;;;7.30;99.90;;;;;;5044089;28;20063;-59
2020/12/15 01:16:39;;;;;;;5.85;3.22;;;7.30;99.90;;;;;;5031751;28;20030;-58
2020/12/15 01:19:05;;;;;;;4.97;2.90;;;7.20;99.90;;;;;;5020873;28;20478;-59
2020/12/15 01:21:31;;;;;;;4.15;2.70;;;7.30;99.90;;;;;;5015935;28;20049;-59
2020/12/15 01:23:57;;;;;;;10.77;3.00;;;7.30;99.90;;;;;;5024607;28;20031;-60
2020/12/15 01:26:23;;;;;;;7.30;3.15;;;7.20;99.90;;;;;;5016987;28;20084;-58
2020/12/15 01:28:50;;;;;;;6.18;3.45;;;7.20;99.90;;;;;;5031217;28;20563;-61
2020/12/15 01:31:22;;;;;;;5.78;3.70;;;7.20;99.90;;;;;;5029288;28;20040;-60
2020/12/15 01:33:47;;;;;;;5.60;3.35;;;7.10;99.90;;;;;;5039955;28;20022;-59
2020/12/15 01:36:13;;;;;;;5.10;3.15;;;7.10;99.90;;;;;;5034960;28;20025;-61
2020/12/15 01:38:41;;;;;;;7.63;3.50;;;7.10;99.90;;;;;;5032752;28;20101;-59
2020/12/15 01:41:07;;;;;;;6.95;3.45;;;7.00;99.90;;;;;;5035155;28;20025;-60
2020/12/15 01:43:34;;;;;;;5.55;3.47;;;7.00;99.90;;;;;;5026161;28;20025;-60
2020/12/15 01:46:00;;;;;;;9.02;3.65;;;7.00;99.90;;;;;;5035189;28;20434;-61
2020/12/15 01:48:26;;;;;;;6.68;2.90;;;7.00;99.90;;;;;;5033088;28;20487;-60
2020/12/15 01:50:51;;;;;;;9.43;3.58;;;7.00;99.90;;;;;;5055824;28;20040;-61
2020/12/15 01:53:17;;;;;;;7.80;3.78;;;7.00;99.90;;;;;;5035782;28;20029;-60
2020/12/15 01:55:44;;;;;;;5.07;3.67;;;7.00;99.90;;;;;;5035124;28;20465;-62
2020/12/15 01:58:10;;;;;;;6.43;3.53;;;7.00;99.90;;;;;;5017635;28;20033;-59
2020/12/15 02:00:36;;;;;;;6.18;3.70;;;7.00;99.90;;;;;;5021441;28;20069;-61
2020/12/15 02:03:02;;;;;;;8.98;3.90;;;7.00;99.90;;;;;;5016059;28;20046;-60
2020/12/15 02:05:29;;;;;;;7.40;3.78;;;6.90;99.90;;;;;;5046054;28;20759;-59
2020/12/15 02:07:54;;;;;;;6.35;4.07;;;6.90;99.90;;;;;;5042667;28;20394;-59
2020/12/15 02:10:20;;;;;;;13.25;4.43;;;6.90;99.90;;;;;;5030245;28;20013;-60
2020/12/15 02:12:48;;;;;;;10.75;4.30;;;6.90;99.90;;;;;;5032768;28;20022;-57
2020/12/15 02:15:14;;;;;;;9.23;3.83;;;6.90;99.90;;;;;;5029647;28;20017;-58
2020/12/15 02:17:39;;;;;;;10.43;4.38;;;6.90;99.90;;;;;;5035367;28;20025;-59
2020/12/15 02:20:08;;;;;;;8.48;4.22;;;6.90;99.90;;;;;;5031558;28;20026;-59
2020/12/15 02:22:34;;;;;;;7.22;4.40;;;6.90;99.90;;;;;;5025265;28;20491;-60
2020/12/15 02:25:00;;;;;;;6.65;4.18;;;6.90;99.90;;;;;;5039909;28;20030;-58
2020/12/15 02:27:26;;;;;;;8.73;3.60;;;6.90;99.90;;;;;;5028674;28;20042;-58
2020/12/15 02:29:52;;;;;;;8.55;4.20;;;6.90;99.90;;;;;;5038248;28;20029;-58
2020/12/15 02:32:17;;;;;;;8.38;3.90;;;6.90;99.90;;;;;;5018826;28;20380;-59
2020/12/15 02:34:43;;;;;;;8.98;3.45;;;6.90;99.90;;;;;;5035961;28;20037;-58
2020/12/15 02:37:10;;;;;;;8.00;4.18;;;6.90;99.90;;;;;;5041906;28;20044;-58
2020/12/15 02:39:36;;;;;;;5.75;3.55;;;6.90;99.90;;;;;;5030232;28;20117;-59
2020/12/15 02:42:02;;;;;;;6.53;4.10;;;7.00;99.90;;;;;;5025498;28;20522;-57
2020/12/15 02:44:28;;;;;;;5.97;3.70;;;6.90;99.90;;;;;;5038623;28;20028;-57
2020/12/15 02:46:55;;;;;;;6.90;4.18;;;6.90;99.90;;;;;;5035740;28;20033;-60
2020/12/15 02:49:21;;;;;;;7.40;3.88;;;6.90;99.90;;;;;;5036926;28;20383;-58
2020/12/15 02:51:50;;;;;;;7.13;3.65;;;6.90;99.90;;;;;;5034921;28;20033;-59
2020/12/15 02:54:19;;;;;;;13.95;4.10;;;7.00;99.90;;;;;;5042224;28;20102;-58
2020/12/15 02:56:45;;;;;;;6.35;4.22;;;6.90;99.90;;;;;;5031514;28;20033;-59
2020/12/15 02:59:11;;;;;;;7.95;4.63;;;7.00;99.90;;;;;;5036109;28;20021;-57
2020/12/15 03:01:40;;;;;;;6.85;4.38;;;7.00;99.90;;;;;;5023157;28;20136;-59
2020/12/15 03:04:07;;;;;;;6.70;3.97;;;6.90;99.90;;;;;;5021651;28;20036;-57
2020/12/15 03:06:32;;;;;;;7.38;4.07;;;6.90;99.90;;;;;;5029954;28;20533;-58
2020/12/15 03:08:58;;;;;;;7.80;4.15;;;6.90;99.90;;;;;;5032556;28;20021;-57
2020/12/15 03:11:24;;;;;;;8.10;4.32;;;6.90;99.90;;;;;;5038451;28;20465;-58
2020/12/15 03:13:50;;;;;;;10.20;4.13;;;6.90;99.90;;;;;;5037473;28;20022;-57
2020/12/15 03:16:16;;;;;;;14.25;4.65;;;6.90;99.90;;;;;;5038193;28;20017;-59
2020/12/15 03:18:41;;;;;;;8.90;4.32;;;6.90;99.90;;;;;;5029072;28;20055;-60
2020/12/15 03:21:08;;;;;;;6.68;4.07;;;6.90;99.90;;;;;;5029066;28;20115;-58
2020/12/15 03:23:34;;;;;;;8.73;5.20;;;6.90;99.90;;;;;;5032560;28;20395;-59
2020/12/15 03:26:00;;;;;;;7.93;4.40;;;6.90;99.90;;;;;;5016869;28;20041;-59
2020/12/15 03:28:26;;;;;;;7.72;4.85;;;6.90;99.90;;;;;;5035725;28;20505;-58
2020/12/15 03:30:52;;;;;;;8.15;5.20;;;6.90;99.90;;;;;;5036426;28;20082;-58
2020/12/15 03:33:18;;;;;;;11.10;4.93;;;6.90;99.90;;;;;;5036363;28;20029;-58
2020/12/15 03:35:44;;;;;;;8.98;5.57;;;6.90;99.90;;;;;;5035618;28;20033;-57
2020/12/15 03:38:10;;;;;;;10.55;5.53;;;6.90;99.90;;;;;;5027487;28;20032;-60
2020/12/15 03:40:37;;;;;;;8.23;5.45;;;6.80;99.90;;;;;;5025832;28;20041;-58
2020/12/15 03:43:03;;;;;;;9.98;5.22;;;6.90;99.90;;;;;;5036438;28;20048;-58
2020/12/15 03:45:30;;;;;;;9.32;5.25;;;6.90;99.90;;;;;;5033000;28;20730;-62
2020/12/15 03:47:55;;;;;;;9.10;4.95;;;6.90;99.90;;;;;;5025512;28;20467;-61
2020/12/15 03:50:21;;;;;;;7.15;4.53;;;6.80;99.90;;;;;;5043430;28;20090;-62
2020/12/15 03:52:49;;;;;;;7.90;4.68;;;6.90;99.90;;;;;;5038953;28;20029;-62
2020/12/15 03:55:14;;;;;;;7.80;4.78;;;6.90;99.90;;;;;;5044145;28;20017;-63
2020/12/15 03:57:40;;;;;;;10.45;4.88;;;6.90;99.90;;;;;;5034422;28;20032;-62
2020/12/15 04:00:06;;;;;;;9.85;5.05;;;6.90;99.90;;;;;;5035751;28;20033;-61
2020/12/15 04:02:31;;;;;;;13.07;5.35;;;6.90;99.90;;;;;;5011583;28;20069;-62
2020/12/15 04:04:58;;;;;;;8.50;5.50;;;6.90;99.90;;;;;;5039074;28;20543;-61
2020/12/15 04:07:24;;;;;;;15.75;6.72;;;6.90;99.90;;;;;;4999636;28;20037;-60
2020/12/15 04:09:49;;;;;;;9.00;5.63;;;6.90;99.90;;;;;;5040094;28;20055;-62
2020/12/15 04:12:15;;;;;;;7.85;5.10;;;6.90;99.90;;;;;;5037964;28;20029;-61
2020/12/15 04:14:41;;;;;;;11.02;5.32;;;7.00;99.90;;;;;;5040119;28;20075;-65
2020/12/15 04:17:08;;;;;;;8.77;5.53;;;6.90;99.90;;;;;;5026427;28;20084;-62
2020/12/15 04:19:35;;;;;;;12.25;6.30;;;7.00;99.90;;;;;;5035435;28;20029;-62
2020/12/15 04:22:00;;;;;;;8.43;5.80;;;7.00;99.90;;;;;;5036007;28;20029;-63
2020/12/15 04:24:26;;;;;;;7.75;5.82;;;7.00;99.90;;;;;;5038584;28;20024;-62
2020/12/15 04:26:52;;;;;;;11.20;5.70;;;7.00;99.90;;;;;;5038843;28;20020;-62
2020/12/15 04:29:17;;;;;;;8.10;5.50;;;7.00;99.90;;;;;;5031905;28;20436;-61
2020/12/15 04:31:43;;;;;;;13.65;5.30;;;7.00;99.90;;;;;;5041459;28;20647;-63
2020/12/15 04:34:09;;;;;;;12.63;5.90;;;7.00;99.90;;;;;;5034717;28;20079;-63
2020/12/15 04:36:34;;;;;;;13.02;5.53;;;7.00;99.90;;;;;;5044194;28;20468;-62
2020/12/15 04:39:00;;;;;;;9.80;5.95;;;7.00;99.90;;;;;;5036243;28;20029;-62
2020/12/15 04:41:26;;;;;;;9.93;6.22;;;7.10;99.90;;;;;;5032191;28;20030;-61
2020/12/15 04:43:52;;;;;;;8.65;5.78;;;7.10;99.90;;;;;;5011924;28;20051;-62
2020/12/15 04:46:22;;;;;;;13.48;6.28;;;7.10;99.90;;;;;;5034101;28;20041;-63
2020/12/15 04:49:07;;;;;;;10.40;6.35;;;7.10;99.90;;;;;;5042616;28;20033;-61
2020/12/15 04:51:54;;;;;;;9.98;6.03;;;7.10;99.90;;;;;;5039061;28;20029;-61
2020/12/15 04:54:34;;;;;;;8.82;6.28;;;7.10;99.90;;;;;;5034134;28;20525;-62
2020/12/15 04:57:02;;;;;;;8.07;6.22;;;7.20;99.90;;;;;;5038158;28;20030;-62
2020/12/15 04:59:33;;;;;;;11.13;7.68;;;7.20;99.90;;;;;;5038438;28;20379;-62
2020/12/15 05:02:02;;;;;;;16.60;6.35;;;7.20;99.90;;;;;;5016908;28;20057;-62
2020/12/15 05:04:32;;;;;;;9.23;6.30;;;7.20;99.90;;;;;;5030384;28;20039;-62
2020/12/15 05:06:59;;;;;;;10.10;6.95;;;7.20;99.90;;;;;;5038803;28;20010;-62
2020/12/15 05:09:30;;;;;;;9.70;6.60;;;7.20;99.90;;;;;;5039109;28;20119;-62
2020/12/15 05:11:57;;;;;;;12.55;7.60;;;7.20;99.90;;;;;;5031002;28;20024;-62
2020/12/15 05:14:26;;;;;;;14.98;7.35;;;7.20;99.90;;;;;;5039214;28;20053;-62
2020/12/15 05:16:52;;;;;;;10.48;7.05;;;7.20;99.90;;;;;;5032063;28;20041;-62
2020/12/15 05:19:18;;;;;;;12.68;7.05;;;7.20;99.90;;;;;;5036254;28;20163;-62
2020/12/15 05:22:00;;;;;;;10.52;6.95;;;7.20;99.90;;;;;;5037183;28;20746;-63
2020/12/15 05:24:28;;;;;;;14.93;7.63;;;7.30;99.90;;;;;;5031061;28;20029;-62
2020/12/15 05:27:01;;;;;;;12.18;8.05;;;7.30;99.90;;;;;;5033303;28;20033;-63
2020/12/15 05:29:27;;;;;;;9.52;7.28;;;7.30;99.90;;;;;;5019522;28;20025;-63
2020/12/15 05:31:58;;;;;;;11.23;7.07;;;7.30;99.90;;;;;;5013305;28;20112;-61
2020/12/15 05:34:25;;;;;;;10.90;7.82;;;7.30;99.90;;;;;;5016590;28;20064;-61
2020/12/15 05:36:56;;;;;;;16.05;9.38;;;7.30;99.90;;;;;;5038305;28;20581;-62
2020/12/15 05:39:24;;;;;;;13.75;8.55;;;7.40;99.90;;;;;;5028606;28;20111;-62
2020/12/15 05:42:05;;;;;;;11.23;7.35;;;7.40;99.90;;;;;;5025016;28;20573;-62
2020/12/15 05:44:34;;;;;;;11.75;7.53;;;7.40;99.90;;;;;;4999992;28;20094;-61
2020/12/15 05:47:05;;;;;;;12.32;7.47;;;7.40;99.90;;;;;;5025177;28;20033;-61
2020/12/15 05:49:35;;;;;;;12.50;6.70;;;7.40;99.90;;;;;;5024985;28;20025;-62
2020/12/15 05:52:01;;;;;;;14.10;8.25;;;7.40;99.90;;;;;;5025493;28;20082;-62
2020/12/15 05:54:27;;;;;;;12.73;7.90;;;7.40;99.90;;;;;;5035029;28;20045;-62
2020/12/15 05:57:03;;;;;;;12.63;7.88;;;7.40;99.90;;;;;;5028719;28;20021;-62
2020/12/15 05:59:30;;;;;;;11.55;7.00;;;7.50;99.90;;;;;;5037703;28;20117;-60
2020/12/15 06:02:06;;;;;;;11.13;7.72;;;7.50;99.90;;;;;;5020941;28;20061;-61
2020/12/15 06:04:34;;;;;;;11.40;7.47;;;7.50;99.90;;;;;;5026012;28;20029;-62
2020/12/15 06:07:04;;;;;;;12.77;7.82;;;7.50;99.90;;;;;;5021259;28;20437;-61
2020/12/15 06:09:31;;;;;;;16.40;8.50;;;7.50;99.90;;;;;;5037880;28;20021;-63
2020/12/15 06:11:57;;;;;;;15.60;9.02;;;7.50;99.90;;;;;;5036576;28;20498;-61
2020/12/15 06:14:24;;;;;;;13.15;8.07;;;7.50;99.90;;;;;;5037792;28;20033;-62
2020/12/15 06:16:50;;;;;;;14.93;8.70;;;7.60;99.90;;;;;;5032571;28;20510;-63
2020/12/15 06:19:18;;;;;;;10.82;7.35;;;7.50;99.90;;;;;;5028277;28;20025;-61
2020/12/15 06:22:02;;;;;;;12.40;8.38;;;7.60;99.90;;;;;;5037232;28;20030;-61
2020/12/15 06:24:39;;;;;;;13.80;8.77;;;7.50;99.90;;;;;;5037951;28;20039;-61
2020/12/15 06:27:08;;;;;;;14.07;8.32;;;7.60;99.90;;;;;;5030146;28;20128;-63
2020/12/15 06:29:39;;;;;;;13.60;8.73;;;7.50;99.90;;;;;;5033332;28;20024;-62
2020/12/15 06:32:16;;;;;;;11.95;8.85;;;7.50;99.90;;;;;;5036428;28;20021;-62
2020/12/15 06:34:45;;;;;;;13.50;8.95;;;7.50;99.90;;;;;;5046032;28;20029;-61
2020/12/15 06:37:10;;;;;;;12.25;8.43;;;7.60;99.90;;;;;;5028337;28;20387;-60
2020/12/15 06:39:36;;;;;;;11.48;9.00;;;7.60;99.90;;;;;;5024820;28;20025;-61
2020/12/15 06:42:06;;;;;;;13.95;8.90;;;7.60;99.90;;;;;;5033378;28;20029;-62
2020/12/15 06:44:35;;;;;;;12.45;8.85;;;7.60;99.90;;;;;;5001792;28;20106;-62
2020/12/15 06:47:03;;;;;;;12.05;8.63;;;7.60;99.90;;;;;;5027365;28;20546;-61
2020/12/15 06:49:38;;;;;;;10.52;8.10;;;7.60;99.90;;;;;;5027039;28;20122;-62
2020/12/15 06:52:06;;;;;;;11.98;8.85;;;7.70;99.90;;;;;;5037775;28;20033;-61
2020/12/15 06:54:38;;;;;;;13.95;8.65;;;7.70;99.90;;;;;;5041497;28;20045;-63
2020/12/15 06:57:05;;;;;;;18.20;11.70;;;7.60;99.90;;;;;;5037699;28;20194;-62
2020/12/15 06:59:40;;;;;;;12.15;9.52;;;7.60;99.90;;;;;;5032637;28;20062;-62
2020/12/15 07:02:15;;;;;;;14.25;9.65;;;7.70;99.90;;;;;;5014404;28;20046;-62
2020/12/15 07:04:47;;;;;;;10.77;8.43;;;7.60;99.90;;;;;;5034478;28;20375;-62
2020/12/15 07:07:16;;;;;;;15.82;9.85;;;7.70;99.90;;;;;;5036855;28;20029;-62
2020/12/15 07:09:45;;;;;;;15.25;9.90;;;7.70;99.90;;;;;;5037085;28;20048;-62
2020/12/15 07:12:16;;;;;;;13.57;9.95;;;7.70;99.90;;;;;;5038504;28;20033;-62
2020/12/15 07:14:49;;;;;;;13.93;10.55;;;7.60;99.90;;;;;;5037159;28;20029;-62
2020/12/15 07:17:15;;;;;;;12.75;10.35;;;7.70;99.90;;;;;;5023562;28;20037;-60
2020/12/15 07:19:40;;;;;;;13.07;10.18;;;7.60;99.90;;;;;;5035137;28;20029;-61
2020/12/15 07:22:07;;;;;;;13.80;9.98;;;7.60;99.90;;;;;;5039531;28;20113;-61
2020/12/15 07:24:33;;;;;;;12.77;9.98;;;7.70;99.90;;;;;;5039276;28;20055;-62
2020/12/15 07:27:02;;;;;;;12.88;10.20;;;7.70;99.90;;;;;;5036853;28;20045;-62
2020/12/15 07:29:28;;;;;;;14.57;10.38;;;7.70;99.90;;;;;;5035635;28;20040;-63
2020/12/15 07:31:55;;;;;;;17.00;10.65;;;7.70;99.90;;;;;;5038356;28;20021;-60
2020/12/15 07:34:21;;;;;;;15.70;10.40;;;7.70;99.90;;;;;;5033519;28;20037;-62
2020/12/15 07:36:49;;;;;;;17.98;10.98;;;7.70;99.90;;;;;;5044945;28;20625;-62
2020/12/15 07:39:15;;;;;;;14.45;10.30;;;7.70;99.90;;;;;;5037111;28;20025;-62
2020/12/15 07:41:41;;;;;;;15.85;11.35;;;7.70;99.90;;;;;;5036094;28;20037;-62
2020/12/15 07:44:09;;;;;;;14.80;10.88;;;7.70;99.90;;;;;;5002997;28;20037;-63
2020/12/15 07:46:36;;;;;;;15.50;11.43;;;7.60;99.90;;;;;;5033125;28;20026;-62
2020/12/15 07:49:06;;;;;;;16.83;10.82;;;7.70;99.90;;;;;;5030845;28;20055;-62
2020/12/15 07:51:32;;;;;;;14.77;10.55;;;7.70;99.90;;;;;;5033925;28;20030;-63
2020/12/15 07:53:59;;;;;;;19.45;13.23;;;7.70;99.90;;;;;;5041679;28;20380;-63
2020/12/15 07:56:25;;;;;;;19.80;12.52;;;7.70;99.90;;;;;;5033240;28;20390;-62
2020/12/15 07:58:52;;;;;;;15.27;11.60;;;7.70;99.90;;;;;;5035509;28;20065;-63
2020/12/15 08:01:28;;;;;;;16.73;11.82;;;7.60;99.90;;;;;;5034578;28;20484;-62
2020/12/15 08:04:10;;;;;;;15.52;11.27;;;7.60;99.90;;;;;;5011563;28;20056;-63
2020/12/15 08:06:38;;;;;;;14.90;11.45;;;7.60;99.90;;;;;;5012834;28;20048;-63
2020/12/15 08:09:05;;;;;;;19.70;11.77;;;7.70;99.90;;;;;;5013589;28;20041;-63
2020/12/15 08:11:31;;;;;;;16.27;11.70;;;7.70;99.90;;;;;;5015823;28;20029;-63
2020/12/15 08:13:59;;;;;;;13.82;10.88;;;7.70;99.90;;;;;;5013539;28;20021;-62
2020/12/15 08:16:26;;;;;;;13.95;10.77;;;7.70;99.90;;;;;;5013414;28;20033;-63
2020/12/15 08:19:00;;;;;;;19.83;11.15;;;7.70;99.90;;;;;;5019112;28;20106;-62
2020/12/15 08:21:54;;;;;;;17.95;11.95;;;7.70;99.90;;;;;;5013258;28;20061;-61
2020/12/15 08:24:26;;;;;;;16.63;12.32;;;7.60;99.90;;;;;;5012654;28;20052;-62
2020/12/15 08:26:52;;;;;;;15.45;11.02;;;7.60;99.90;;;;;;5014794;28;20026;-63
2020/12/15 08:29:20;;;;;;;15.05;11.82;;;7.60;99.90;;;;;;5016328;28;20026;-62
2020/12/15 08:31:46;;;;;;;17.25;11.63;;;7.60;99.90;;;;;;5012403;28;20100;-63
2020/12/15 08:34:17;;;;;;;14.57;10.38;;;7.60;99.90;;;;;;5015423;28;20161;-63
2020/12/15 08:36:54;;;;;;;14.52;10.43;;;7.70;99.90;;;;;;5014401;28;20607;-63
2020/12/15 08:39:23;;;;;;;18.70;11.45;;;7.70;99.90;;;;;;5014683;28;20028;-61
2020/12/15 08:41:54;;;;;;;17.42;12.60;;;7.70;99.90;;;;;;5017128;28;20025;-61
2020/12/15 08:44:21;;;;;;;18.17;12.27;;;7.70;99.90;;;;;;5015282;28;20626;-63
2020/12/15 08:46:49;;;;;;;14.75;11.20;;;7.60;99.90;;;;;;5013392;28;20570;-63
2020/12/15 08:49:16;;;;;;;14.75;11.20;;;7.70;99.90;;;;;;5017291;28;20033;-62
2020/12/15 08:51:52;;;;;;;13.40;10.80;;;7.70;99.90;;;;;;5010540;28;20140;-62
2020/12/15 08:54:21;;;;;;;15.02;10.40;;;7.70;99.90;;;;;;5018109;28;20037;-62
2020/12/15 08:56:48;;;;;;;16.45;10.70;;;7.80;99.90;;;;;;5012983;28;20033;-62
2020/12/15 08:59:16;;;;;;;14.02;10.32;;;7.80;99.90;;;;;;5014666;28;20538;-61
2020/12/15 09:01:43;;;;;;;14.55;10.52;;;7.80;99.90;;;;;;4998981;28;20112;-63
2020/12/15 09:04:10;;;;;;;14.57;10.95;;;7.80;99.90;;;;;;5021932;28;20025;-62
2020/12/15 09:06:38;;;;;;;15.60;10.95;;;7.90;99.90;;;;;;5014959;28;20036;-62
2020/12/15 09:09:07;;;;;;;14.60;10.45;;;7.90;99.90;;;;;;5021263;28;20025;-61
2020/12/15 09:11:33;;;;;;;17.23;10.45;;;7.90;99.90;;;;;;5018021;28;20030;-63
2020/12/15 09:14:01;;;;;;;13.80;10.25;;;7.90;99.90;;;;;;5022755;28;20025;-62
2020/12/15 09:16:28;;;;;;;12.85;10.25;;;7.90;99.90;;;;;;5014768;28;20049;-62
2020/12/15 09:18:54;;;;;;;15.27;10.57;;;7.90;99.90;;;;;;5022303;28;20018;-62
2020/12/15 09:21:20;;;;;;;17.65;11.07;;;8.00;99.90;;;;;;5016064;28;20030;-63
2020/12/15 09:23:53;;;;;;;13.75;9.77;;;8.00;99.90;;;;;;5019362;28;20018;-62
2020/12/15 09:26:20;;;;;;;14.30;9.80;;;8.00;99.90;;;;;;5020068;28;20018;-60
2020/12/15 09:28:46;;;;;;;14.50;10.10;;;8.10;99.90;;;;;;5019805;28;20025;-62
2020/12/15 09:31:13;;;;;;;11.35;9.15;;;8.10;99.90;;;;;;5016592;28;20099;-61
2020/12/15 09:33:39;;;;;;;12.65;10.07;;;8.10;99.90;;;;;;5014403;28;20033;-63
2020/12/15 09:36:04;;;;;;;13.90;10.07;;;8.10;99.90;;;;;;5022593;28;20020;-63
2020/12/15 09:38:30;;;;;;;12.68;9.60;;;8.10;99.90;;;;;;5018050;28;20026;-62
2020/12/15 09:40:55;;;;;;;14.25;9.75;;;8.10;99.90;;;;;;5020923;28;20061;-63
2020/12/15 09:43:21;;;;;;;14.43;9.60;;;8.20;99.90;;;;;;5016935;28;21281;-62
2020/12/15 09:45:46;;;;;;;11.50;8.85;;;8.20;99.90;;;;;;5038554;28;20026;-63
2020/12/15 09:48:12;;;;;;;14.00;9.30;;;8.20;99.90;;;;;;5027664;28;20398;-63
2020/12/15 09:50:38;;;;;;;12.20;9.40;;;8.20;99.90;;;;;;5020310;28;20691;-63
2020/12/15 09:53:03;;;;;;;14.98;9.48;;;8.20;99.90;;;;;;5035305;28;20082;-63
2020/12/15 09:55:29;;;;;;;11.68;9.40;;;8.20;99.90;;;;;;5026625;28;20499;-63
2020/12/15 09:57:54;;;;;;;11.02;8.88;;;8.30;99.90;;;;;;5035840;28;20040;-63
2020/12/15 10:00:20;;;;;;;15.00;10.00;;;8.20;99.90;;;;;;5030350;28;20029;-64
2020/12/15 10:02:45;;;;;;;11.60;8.85;;;8.20;99.90;;;;;;5011085;28;20045;-61
2020/12/15 10:05:11;;;;;;;15.05;10.00;;;8.30;99.90;;;;;;5035411;28;20021;-62
2020/12/15 10:07:38;;;;;;;14.00;9.82;;;8.20;99.90;;;;;;5021231;28;20117;-63
2020/12/15 10:10:04;;;;;;;13.63;9.50;;;8.20;99.90;;;;;;5032336;28;20384;-62
2020/12/15 10:12:30;;;;;;;10.95;8.48;;;8.30;99.90;;;;;;5024237;28;20026;-63
2020/12/15 10:14:55;;;;;;;13.35;9.05;;;8.30;99.90;;;;;;5035508;28;20372;-62
2020/12/15 10:17:21;;;;;;;11.48;8.30;;;8.40;99.90;;;;;;5024084;28;20096;-63
2020/12/15 10:19:46;;;;;;;13.40;9.23;;;8.40;99.90;;;;;;5035906;28;20127;-63
2020/12/15 10:22:12;;;;;;;13.02;8.90;;;8.50;99.90;;;;;;5032816;28;20033;-63
2020/12/15 10:24:38;;;;;;;11.63;8.95;;;8.50;99.90;;;;;;5020771;28;20036;-63
2020/12/15 10:27:03;;;;;;;15.48;8.88;;;8.50;99.90;;;;;;5036725;28;20021;-63
2020/12/15 10:29:31;;;;;;;11.63;8.40;;;8.50;99.90;;;;;;5033421;28;20010;-64
2020/12/15 10:31:57;;;;;;;11.55;8.73;;;8.60;99.90;;;;;;5035084;28;20025;-63
2020/12/15 10:34:23;;;;;;;13.27;8.55;;;8.60;99.90;;;;;;5032181;28;20520;-63
2020/12/15 10:36:49;;;;;;;12.80;8.95;;;8.60;99.90;;;;;;5042662;28;20017;-60
2020/12/15 10:39:16;;;;;;;13.48;7.95;;;8.60;99.90;;;;;;5035014;28;20618;-61
2020/12/15 10:41:42;;;;;;;11.02;8.48;;;8.70;99.90;;;;;;5028238;28;20037;-60
2020/12/15 10:44:14;;;;;;;15.07;8.90;;;8.70;99.90;;;;;;4964845;28;20090;-62
2020/12/15 10:46:44;;;;;;;12.40;9.30;;;8.80;99.90;;;;;;5013595;28;20053;-62
2020/12/15 10:49:09;;;;;;;14.38;8.48;;;8.80;99.90;;;;;;5024121;28;20096;-61
2020/12/15 10:51:35;;;;;;;11.20;8.43;;;8.80;99.90;;;;;;5022892;28;20104;-62
2020/12/15 10:54:01;;;;;;;11.52;7.88;;;8.90;99.90;;;;;;5021610;28;20028;-61
2020/12/15 10:56:26;;;;;;;11.13;8.15;;;8.90;99.90;;;;;;5026125;28;20026;-62
2020/12/15 10:58:52;;;;;;;10.75;8.35;;;8.90;99.90;;;;;;5019483;28;20047;-60
2020/12/15 11:01:17;;;;;;;11.18;8.55;;;8.90;99.90;;;;;;5038192;28;20025;-62
2020/12/15 11:03:43;;;;;;;10.93;7.60;;;9.00;99.90;;;;;;5006611;28;20057;-60
2020/12/15 11:06:08;;;;;;;12.15;8.68;;;9.00;99.90;;;;;;5045408;28;20028;-62
2020/12/15 11:08:34;;;;;;;11.00;8.32;;;8.90;99.90;;;;;;5028658;28;20695;-60
2020/12/15 11:10:59;;;;;;;13.20;9.15;;;9.00;99.90;;;;;;5039480;28;20066;-63
2020/12/15 11:13:25;;;;;;;10.98;7.82;;;9.00;99.90;;;;;;5034172;28;20018;-60
2020/12/15 11:15:51;;;;;;;11.85;8.98;;;9.00;99.90;;;;;;5027121;28;20039;-60
2020/12/15 11:18:16;;;;;;;13.30;8.73;;;9.00;99.90;;;;;;5031864;28;20029;-62
2020/12/15 11:20:42;;;;;;;14.50;9.90;;;9.00;99.90;;;;;;5027545;28;20022;-61
2020/12/15 11:23:08;;;;;;;12.30;8.48;;;9.00;99.90;;;;;;5045308;28;20116;-60
2020/12/15 11:25:33;;;;;;;11.85;8.80;;;9.00;99.90;;;;;;5030777;28;20402;-60
2020/12/15 11:27:59;;;;;;;12.13;8.85;;;9.00;99.90;;;;;;5040240;28;20726;-61
2020/12/15 11:30:25;;;;;;;11.77;8.93;;;9.00;99.90;;;;;;5041096;28;20490;-62
2020/12/15 11:32:51;;;;;;;15.57;9.65;;;9.00;99.90;;;;;;5039842;28;20022;-61
2020/12/15 11:35:16;;;;;;;14.18;9.90;;;8.90;99.90;;;;;;5037637;28;20037;-60
2020/12/15 11:37:44;;;;;;;14.45;10.15;;;8.90;99.90;;;;;;5040982;28;20389;-60
2020/12/15 11:40:11;;;;;;;17.27;10.57;;;8.80;99.90;;;;;;5042083;28;20025;-60
2020/12/15 11:42:37;;;;;;;15.85;11.35;;;8.80;99.90;;;;;;5037115;28;20048;-62
2020/12/15 11:45:04;;;;;;;18.05;11.95;;;8.80;99.90;;;;;;5042216;28;20494;-60
2020/12/15 11:47:30;;;;;;;13.38;9.27;;;8.80;99.90;;;;;;5041455;28;20028;-62
2020/12/15 11:49:56;;;;;;;17.67;11.95;;;8.80;99.90;;;;;;5042428;28;20018;-62
2020/12/15 11:52:21;;;;;;;17.23;12.55;;;8.80;99.90;;;;;;5038865;28;20029;-65
2020/12/15 11:54:47;;;;;;;19.92;13.73;;;8.80;99.90;;;;;;5043975;28;20037;-63
2020/12/15 11:57:14;;;;;;;24.17;17.35;;;8.70;99.90;;;;;;5041219;28;20021;-64
2020/12/15 11:59:43;;;;;;;18.15;13.10;;;8.80;99.90;;;;;;4994236;28;20116;-60
2020/12/15 12:02:11;;;;;;;20.92;13.07;;;8.70;99.90;;;;;;5008876;28;20112;-62
2020/12/15 12:04:38;;;;;;;21.02;13.35;;;8.70;99.90;;;;;;5020728;28;20597;-62
2020/12/15 12:07:06;;;;;;;28.02;16.63;;;8.70;99.90;;;;;;5017742;28;20049;-62
2020/12/15 12:09:32;;;;;;;21.58;13.60;;;8.70;99.90;;;;;;5014664;28;20021;-62
2020/12/15 12:11:57;;;;;;;21.15;13.48;;;8.70;99.90;;;;;;5017959;28;20021;-63
2020/12/15 12:14:23;;;;;;;17.63;12.55;;;8.70;99.90;;;;;;5039211;28;20029;-63
2020/12/15 12:16:48;;;;;;;21.13;12.70;;;8.70;99.90;;;;;;5027507;28;20026;-61
2020/12/15 12:19:14;;;;;;;22.67;12.85;;;8.80;99.90;;;;;;5036106;28;20482;-63
2020/12/15 12:21:40;;;;;;;21.13;12.57;;;8.80;99.90;;;;;;5043724;28;20036;-61
2020/12/15 12:24:06;;;;;;;19.35;13.70;;;8.80;99.90;;;;;;5025935;28;20025;-62
2020/12/15 12:26:31;;;;;;;20.05;14.20;;;8.80;99.90;;;;;;5027358;28;20036;-63
2020/12/15 12:28:58;;;;;;;20.15;12.43;;;8.90;99.90;;;;;;5024877;28;20426;-63
2020/12/15 12:31:23;;;;;;;20.65;11.15;;;8.90;99.90;;;;;;5038150;28;20025;-62
2020/12/15 12:33:49;;;;;;;20.88;11.30;;;9.00;99.90;;;;;;5024684;28;20035;-61
2020/12/15 12:36:14;;;;;;;15.13;11.10;;;9.00;99.90;;;;;;5039171;28;20045;-61
2020/12/15 12:38:40;;;;;;;16.38;9.80;;;9.10;99.90;;;;;;5037675;28;20064;-63
2020/12/15 12:41:05;;;;;;;14.20;10.68;;;9.20;99.90;;;;;;5030013;28;20037;-62
2020/12/15 12:43:31;;;;;;;15.45;11.27;;;9.20;99.90;;;;;;5038081;28;20040;-62
2020/12/15 12:45:56;;;;;;;18.80;11.10;;;9.30;99.90;;;;;;5038755;28;20082;-62
2020/12/15 12:48:22;;;;;;;12.43;10.07;;;9.30;99.90;;;;;;5035685;28;20042;-63